Time;durP1;ratioP1;P1;durP2;ratioP2;P2;SDS_P1;SDS_P2;PMS_P1;PMS_P2;Temp;Humidity;BMP_temperature;BMP_pressure;BME280_temperature;BME280_humidity;BME280_pressure;Samples;Min_cycle;Max_cycle;Signal;HPM_P1;HPM_P2
2022/04/27 00:02:12;;;;;;;3.33;1.08;;;;;;;9.33;90.61;102480.25;5114375;28;20050;-28
2022/04/27 00:04:40;;;;;;;5.30;1.20;;;;;;;9.30;90.40;102478.81;5113864;28;20056;-29
2022/04/27 00:07:09;;;;;;;4.45;1.02;;;;;;;9.29;90.33;102479.91;5113687;28;20039;-25
2022/04/27 00:09:36;;;;;;;2.30;0.70;;;;;;;9.29;90.08;102481.84;5114074;28;20407;-29
2022/04/27 00:12:05;;;;;;;3.85;0.90;;;;;;;9.30;90.11;102480.75;5113264;28;20045;-28
2022/04/27 00:14:34;;;;;;;2.58;0.98;;;;;;;9.29;89.96;102482.69;5113902;28;20039;-26
2022/04/27 00:17:02;;;;;;;2.40;0.80;;;;;;;9.30;89.74;102480.75;5113604;28;20093;-28
2022/04/27 00:19:31;;;;;;;2.75;1.00;;;;;;;9.30;89.35;102483.56;5113301;28;20055;-30
2022/04/27 00:21:59;;;;;;;3.10;0.93;;;;;;;9.28;89.18;102481.00;5113966;28;20058;-27
2022/04/27 00:24:27;;;;;;;2.17;1.02;;;;;;;9.28;89.24;102483.78;5113768;28;20079;-29
2022/04/27 00:26:55;;;;;;;3.65;1.17;;;;;;;9.28;89.19;102492.16;5113313;28;20507;-28
2022/04/27 00:29:22;;;;;;;2.45;1.20;;;;;;;9.27;88.82;102490.47;5113661;28;20047;-29
2022/04/27 00:31:50;;;;;;;2.60;0.90;;;;;;;9.26;88.83;102479.56;5112280;28;20586;-30
2022/04/27 00:34:18;;;;;;;2.00;0.70;;;;;;;9.26;88.75;102483.19;5111475;28;20055;-26
2022/04/27 00:36:47;;;;;;;3.92;0.82;;;;;;;9.28;88.63;102486.59;5113553;28;20515;-31
2022/04/27 00:39:16;;;;;;;3.08;0.90;;;;;;;9.29;88.46;102482.69;5113598;28;20043;-26
2022/04/27 00:41:59;;;;;;;3.33;1.33;;;;;;;9.29;88.53;102484.66;5111487;28;20471;-29
2022/04/27 00:44:27;;;;;;;3.95;1.00;;;;;;;9.26;88.45;102483.19;5113355;28;20047;-25
2022/04/27 00:46:55;;;;;;;2.70;0.82;;;;;;;9.26;88.46;102486.00;5113601;28;20046;-25
2022/04/27 00:49:23;;;;;;;2.80;1.00;;;;;;;9.28;88.23;102494.09;5112255;28;20428;-26
2022/04/27 00:51:52;;;;;;;2.35;0.90;;;;;;;9.29;88.44;102487.44;5113460;28;20043;-27
2022/04/27 00:54:22;;;;;;;4.25;1.10;;;;;;;9.29;88.30;102488.28;5110828;28;20094;-27
2022/04/27 00:56:51;;;;;;;3.22;1.00;;;;;;;9.28;88.43;102488.53;5111952;28;20031;-28
2022/04/27 00:59:19;;;;;;;3.38;1.17;;;;;;;9.28;88.70;102491.31;5113049;28;20105;-31
2022/04/27 01:01:47;;;;;;;3.63;1.10;;;;;;;9.27;88.66;102487.69;5112661;28;20066;-28
2022/04/27 01:04:15;;;;;;;2.47;1.05;;;;;;;9.27;88.52;102492.41;5113184;28;20114;-28
2022/04/27 01:06:43;;;;;;;3.88;1.10;;;;;;;9.26;88.15;102491.56;5111533;28;20071;-26
2022/04/27 01:09:12;;;;;;;3.05;0.90;;;;;;;9.27;88.25;102493.25;5111940;28;20047;-26
2022/04/27 01:11:41;;;;;;;2.45;0.85;;;;;;;9.27;87.98;102497.97;5112955;28;20447;-30
2022/04/27 01:14:08;;;;;;;2.80;0.88;;;;;;;9.26;87.96;102501.84;5112766;28;20070;-30
2022/04/27 01:16:36;;;;;;;3.47;1.08;;;;;;;9.26;87.66;102488.78;5112016;28;20044;-29
2022/04/27 01:19:05;;;;;;;3.28;1.00;;;;;;;9.26;87.81;102499.91;5112670;28;20501;-32
2022/04/27 01:21:37;;;;;;;5.82;1.35;;;;;;;9.24;87.70;102496.53;5111399;28;20078;-25
2022/04/27 01:24:07;;;;;;;5.38;1.10;;;;;;;9.24;87.57;102506.81;5112018;28;20047;-26
2022/04/27 01:26:37;;;;;;;2.58;0.90;;;;;;;9.23;87.50;102503.19;5112697;28;20043;-26
2022/04/27 01:29:05;;;;;;;5.35;1.25;;;;;;;9.23;87.67;102505.97;5112569;28;20143;-26
2022/04/27 01:31:34;;;;;;;2.53;0.90;;;;;;;9.24;87.42;102506.81;5111928;28;20127;-30
2022/04/27 01:34:01;;;;;;;2.33;0.70;;;;;;;9.23;87.19;102502.34;5112031;28;20126;-28
2022/04/27 01:36:29;;;;;;;2.92;0.90;;;;;;;9.24;87.32;102507.66;5111329;28;20043;-26
2022/04/27 01:38:58;;;;;;;1.95;0.80;;;;;;;9.24;86.96;102513.25;5111203;28;20051;-29
2022/04/27 01:41:26;;;;;;;2.45;0.90;;;;;;;9.25;86.91;102509.38;5112100;28;20163;-30
2022/04/27 01:43:54;;;;;;;3.22;1.10;;;;;;;9.23;86.85;102511.56;5110455;28;20046;-25
2022/04/27 01:46:22;;;;;;;2.85;0.80;;;;;;;9.23;86.80;102514.34;5110964;28;20401;-31
2022/04/27 01:48:50;;;;;;;2.47;0.82;;;;;;;9.23;86.93;102508.75;5111729;28;20116;-28
2022/04/27 01:51:18;;;;;;;2.20;0.98;;;;;;;9.24;86.87;102516.03;5109851;28;20047;-27
2022/04/27 01:56:33;;;;;;;2.92;0.98;;;;;;;9.25;86.63;102519.66;5110497;28;20096;-30
2022/04/27 01:59:02;;;;;;;2.28;0.80;;;;;;;9.25;86.49;102514.09;5109902;28;20488;-28
2022/04/27 02:01:30;;;;;;;3.45;0.82;;;;;;;9.25;86.51;102517.72;5110516;28;20051;-31
2022/04/27 02:03:59;;;;;;;2.13;0.70;;;;;;;9.25;86.65;102509.38;5110433;28;20074;-29
2022/04/27 02:06:28;;;;;;;2.28;0.75;;;;;;;9.25;86.66;102512.16;5109780;28;20105;-26
2022/04/27 02:08:57;;;;;;;2.90;0.80;;;;;;;9.26;86.74;102513.00;5108840;28;20105;-30
2022/04/27 02:11:29;;;;;;;2.70;0.70;;;;;;;9.24;86.63;102518.81;5109718;28;20124;-29
2022/04/27 02:14:07;;;;;;;2.75;0.70;;;;;;;9.23;86.66;102508.75;5110640;28;20121;-31
2022/04/27 02:16:38;;;;;;;2.15;0.70;;;;;;;9.23;86.71;102513.50;5111906;28;20058;-32
2022/04/27 02:19:13;;;;;;;3.75;1.17;;;;;;;9.22;86.67;102515.44;5109568;28;20047;-29
2022/04/27 02:21:43;;;;;;;1.77;0.80;;;;;;;9.21;86.52;102512.91;5110392;28;20449;-32
2022/04/27 02:24:13;;;;;;;1.70;0.75;;;;;;;9.21;86.52;102519.31;5110132;28;20047;-28
2022/04/27 02:26:42;;;;;;;2.65;0.85;;;;;;;9.23;86.41;102519.91;5110901;28;20044;-33
2022/04/27 02:29:12;;;;;;;3.15;1.00;;;;;;;9.24;86.19;102524.38;5110378;28;20097;-26
2022/04/27 02:31:40;;;;;;;1.45;0.60;;;;;;;9.22;86.04;102521.00;5110030;28;20051;-29
2022/04/27 02:34:09;;;;;;;3.70;1.00;;;;;;;9.23;86.20;102519.91;5109293;28;20039;-26
2022/04/27 02:36:38;;;;;;;2.95;1.00;;;;;;;9.22;86.20;102520.16;5110009;28;20043;-30
2022/04/27 02:39:06;;;;;;;2.90;1.23;;;;;;;9.23;85.87;102530.19;5111364;28;20438;-26
2022/04/27 02:41:34;;;;;;;2.15;0.70;;;;;;;9.23;85.72;102522.69;5109088;28;20056;-33
2022/04/27 02:44:03;;;;;;;1.50;0.60;;;;;;;9.23;85.81;102533.84;5109878;28;20035;-27
2022/04/27 02:46:32;;;;;;;2.05;0.70;;;;;;;9.25;85.57;102528.00;5109632;28;20065;-29
2022/04/27 02:51:51;;;;;;;1.52;0.50;;;;;;;9.22;85.28;102526.56;5111441;28;20047;-31
2022/04/27 02:54:55;;;;;;;1.83;0.73;;;;;;;9.21;85.08;102526.81;5047394;28;20174;-25
2022/04/27 02:57:23;;;;;;;2.58;0.85;;;;;;;9.20;84.41;102531.53;5098443;28;20412;-29
2022/04/27 02:59:51;;;;;;;2.75;0.90;;;;;;;9.21;83.93;102541.59;5109476;28;20100;-25
2022/04/27 03:02:20;;;;;;;2.20;0.80;;;;;;;9.20;83.55;102539.91;5111827;28;20058;-27
2022/04/27 03:04:48;;;;;;;3.20;0.95;;;;;;;9.20;83.09;102548.25;5113148;28;20043;-27
2022/04/27 03:07:16;;;;;;;2.13;0.93;;;;;;;9.19;82.84;102543.78;5111842;28;20078;-31
2022/04/27 03:09:49;;;;;;;2.65;0.80;;;;;;;9.17;82.46;102543.22;5110964;28;20166;-29
2022/04/27 03:12:17;;;;;;;2.63;0.70;;;;;;;9.16;82.35;102535.94;5111843;28;20565;-26
2022/04/27 03:14:46;;;;;;;4.10;1.10;;;;;;;9.16;81.98;102538.72;5112422;28;20036;-31
2022/04/27 03:17:14;;;;;;;2.90;0.70;;;;;;;9.17;81.78;102546.00;5111870;28;20416;-30
2022/04/27 03:19:43;;;;;;;2.42;0.82;;;;;;;9.19;81.93;102542.97;5113165;28;20936;-25
2022/04/27 03:22:14;;;;;;;1.90;0.70;;;;;;;9.18;81.45;102547.69;5114544;28;20100;-27
2022/04/27 03:24:42;;;;;;;1.52;0.70;;;;;;;9.19;81.60;102542.97;5109574;28;20070;-25
2022/04/27 03:27:14;;;;;;;1.65;0.70;;;;;;;9.19;81.50;102541.00;5113808;28;20108;-29
2022/04/27 03:29:43;;;;;;;3.38;0.73;;;;;;;9.21;81.17;102544.38;5110522;28;20074;-30
2022/04/27 03:32:12;;;;;;;1.67;0.70;;;;;;;9.20;81.58;102544.63;5110234;28;20047;-28
2022/04/27 03:34:49;;;;;;;2.35;0.77;;;;;;;9.19;81.67;102543.78;5114532;28;20100;-31
2022/04/27 03:37:16;;;;;;;2.15;0.65;;;;;;;9.20;81.65;102539.06;5112340;28;20112;-26
2022/04/27 03:39:44;;;;;;;3.40;0.80;;;;;;;9.20;81.67;102550.19;5113321;28;20116;-26
2022/04/27 03:42:17;;;;;;;2.88;0.98;;;;;;;9.20;81.82;102551.03;5113169;28;20416;-27
2022/04/27 03:44:48;;;;;;;3.43;0.97;;;;;;;9.19;81.89;102545.75;5112352;28;20143;-26
2022/04/27 03:47:16;;;;;;;3.95;1.00;;;;;;;9.19;82.58;102552.13;5114315;28;20043;-34
2022/04/27 03:49:44;;;;;;;3.38;1.15;;;;;;;9.18;82.93;102547.69;5112950;28;20059;-28
2022/04/27 03:52:14;;;;;;;3.08;0.80;;;;;;;9.16;83.16;102544.31;5112697;28;20094;-28
2022/04/27 03:54:47;;;;;;;2.03;0.90;;;;;;;9.15;83.56;102553.75;5107070;28;20055;-29
2022/04/27 03:57:16;;;;;;;3.63;1.20;;;;;;;9.15;84.25;102552.91;5111887;28;20049;-33
2022/04/27 03:59:44;;;;;;;8.45;1.90;;;;;;;9.14;84.32;102546.50;5112683;28;20515;-29
2022/04/27 04:02:13;;;;;;;4.25;1.33;;;;;;;9.12;84.82;102548.66;5112474;28;20476;-29
2022/04/27 04:04:43;;;;;;;3.65;1.00;;;;;;;9.13;84.93;102546.72;5112335;28;20075;-27
2022/04/27 04:07:12;;;;;;;4.95;1.17;;;;;;;9.14;85.79;102548.44;5112830;28;20126;-27
2022/04/27 04:09:48;;;;;;;9.45;1.67;;;;;;;9.14;86.92;102549.28;5112882;28;20469;-26
2022/04/27 04:12:17;;;;;;;6.65;1.50;;;;;;;9.13;87.64;102550.38;5111397;28;20058;-32
2022/04/27 04:15:07;;;;;;;8.30;2.13;;;;;;;9.10;88.51;102550.00;5112752;28;20044;-30
2022/04/27 04:17:56;;;;;;;6.15;1.42;;;;;;;9.06;89.22;102555.22;5112421;28;20134;-29
2022/04/27 04:20:39;;;;;;;7.60;1.73;;;;;;;9.03;89.69;102561.28;5106537;28;20508;-29
2022/04/27 04:23:25;;;;;;;8.98;1.90;;;;;;;8.98;90.21;102553.69;5110449;28;20100;-34
2022/04/27 04:28:57;;;;;;;7.18;1.60;;;;;;;8.91;91.10;102568.84;5111471;28;20047;-31
2022/04/27 04:31:25;;;;;;;5.85;1.42;;;;;;;8.92;90.91;102570.53;5111944;28;20601;-27
2022/04/27 04:34:10;;;;;;;6.10;1.42;;;;;;;8.90;91.66;102572.72;5111288;28;20553;-32
2022/04/27 04:36:38;;;;;;;8.82;1.80;;;;;;;8.90;91.84;102562.44;5111667;28;20047;-28
2022/04/27 04:39:05;;;;;;;6.88;2.00;;;;;;;8.89;91.88;102574.66;5111074;28;20406;-27
2022/04/27 04:41:38;;;;;;;8.50;2.00;;;;;;;8.86;92.22;102565.94;5111279;28;20052;-29
2022/04/27 04:44:07;;;;;;;6.82;1.80;;;;;;;8.84;91.98;102574.53;5107639;28;20052;-26
2022/04/27 04:46:56;;;;;;;9.45;2.17;;;;;;;8.83;92.07;102578.41;5111175;28;20047;-29
2022/04/27 04:49:42;;;;;;;4.90;1.60;;;;;;;8.82;92.15;102579.50;5113225;28;20059;-29
2022/04/27 04:52:32;;;;;;;7.22;1.45;;;;;;;8.81;92.63;102582.53;5112822;28;20496;-28
2022/04/27 04:55:32;;;;;;;8.48;2.00;;;;;;;8.80;92.48;102597.53;5055353;28;20050;-26
2022/04/27 04:58:15;;;;;;;8.85;1.75;;;;;;;8.80;92.62;102586.41;5111205;28;20039;-27
2022/04/27 05:00:53;;;;;;;8.55;1.80;;;;;;;8.81;92.53;102599.22;5111120;28;20143;-25
2022/04/27 05:03:36;;;;;;;7.38;1.88;;;;;;;8.81;93.04;102597.28;5101195;28;20047;-28
2022/04/27 05:06:07;;;;;;;7.68;1.92;;;;;;;8.81;93.13;102597.28;5112963;28;20124;-33
2022/04/27 05:08:52;;;;;;;8.48;2.20;;;;;;;8.80;92.89;102601.16;5101676;28;20063;-27
2022/04/27 05:11:40;;;;;;;7.57;1.80;;;;;;;8.80;93.37;102609.50;5101434;28;20059;-27
2022/04/27 05:14:22;;;;;;;4.05;1.30;;;;;;;8.81;93.03;102611.22;5111897;28;20560;-26
2022/04/27 05:17:20;;;;;;;4.68;1.20;;;;;;;8.82;93.22;102618.47;5092313;28;20059;-24
2022/04/27 05:20:26;;;;;;;8.20;1.50;;;;;;;8.84;93.08;102618.22;5068670;28;20052;-25
2022/04/27 05:23:11;;;;;;;9.00;2.22;;;;;;;8.85;93.04;102620.78;5051103;28;20430;-26
2022/04/27 05:25:58;;;;;;;6.10;1.73;;;;;;;8.86;93.03;102619.69;5101118;28;20054;-30
2022/04/27 05:31:55;;;;;;;4.70;1.23;;;;;;;8.86;92.81;102625.25;5102832;28;20058;-28
2022/04/27 05:34:42;;;;;;;7.57;1.67;;;;;;;8.88;92.91;102633.34;5103304;28;20436;-27
2022/04/27 05:37:21;;;;;;;6.35;2.10;;;;;;;8.89;92.72;102635.91;5107150;28;20051;-31
2022/04/27 05:40:15;;;;;;;3.22;1.20;;;;;;;8.92;92.53;102642.91;5102338;28;20404;-26
2022/04/27 05:42:55;;;;;;;9.68;1.70;;;;;;;8.93;92.16;102648.25;5109834;27;20043;-28
2022/04/27 05:45:28;;;;;;;8.35;1.75;;;;;;;8.96;92.09;102653.31;5108576;28;20489;-26
2022/04/27 05:48:27;;;;;;;9.15;1.85;;;;;;;8.97;91.93;102656.97;5066286;28;20138;-30
2022/04/27 05:51:04;;;;;;;7.20;1.70;;;;;;;8.98;91.58;102659.50;5108698;28;20051;-27
2022/04/27 05:54:10;;;;;;;6.18;1.27;;;;;;;8.96;91.14;102666.41;5037448;28;20067;-30
2022/04/27 05:56:57;;;;;;;8.50;1.67;;;;;;;8.97;90.69;102668.94;5015926;28;20041;-26
2022/04/27 05:59:44;;;;;;;5.90;1.48;;;;;;;9.00;90.56;102673.16;5074866;28;20048;-31
2022/04/27 06:02:39;;;;;;;5.60;1.05;;;;;;;9.04;90.24;102670.72;5097342;28;20530;-27
2022/04/27 06:05:10;;;;;;;4.38;1.15;;;;;;;9.07;90.18;102679.44;5109639;28;20435;-28
2022/04/27 06:07:39;;;;;;;;;;;;;;;9.07;89.36;102678.59;5110013;28;20058;-29
2022/04/27 06:10:12;;;;;;;6.00;1.13;;;;;;;9.06;89.44;102674.13;5109441;28;19928;-27
2022/04/27 06:12:48;;;;;;;6.45;1.40;;;;;;;9.12;89.29;102687.06;5108656;28;20048;-28
2022/04/27 06:15:35;;;;;;;7.05;1.50;;;;;;;9.14;88.74;102682.97;5110769;28;20073;-28
2022/04/27 06:18:09;;;;;;;3.95;1.10;;;;;;;9.17;88.22;102685.25;5108414;28;20047;-29
2022/04/27 06:20:42;;;;;;;7.78;1.60;;;;;;;9.20;87.76;102684.72;5109243;28;20067;-29
2022/04/27 06:23:15;;;;;;;6.05;1.42;;;;;;;9.21;86.76;102689.22;5109159;28;20048;-27
2022/04/27 06:25:47;;;;;;;6.05;1.20;;;;;;;9.22;86.47;102676.97;5105614;28;20089;-27
2022/04/27 06:28:19;;;;;;;8.02;1.27;;;;;;;9.24;85.96;102688.72;5109236;28;20055;-33
2022/04/27 06:30:48;;;;;;;8.85;1.85;;;;;;;9.26;85.40;102689.34;5108345;28;20071;-30
2022/04/27 06:33:16;;;;;;;9.48;1.90;;;;;;;9.28;85.32;102695.50;5108487;28;20048;-30
2022/04/27 06:35:46;;;;;;;6.68;1.80;;;;;;;9.29;84.45;102694.41;5110091;28;20511;-26
2022/04/27 06:38:15;;;;;;;5.00;1.50;;;;;;;9.30;84.18;102701.69;5108723;28;20143;-30
2022/04/27 06:41:09;;;;;;;5.60;1.33;;;;;;;9.31;83.63;102702.53;5108084;28;20058;-28
2022/04/27 06:43:55;;;;;;;5.00;1.20;;;;;;;9.32;83.33;102702.28;5109328;28;20047;-26
2022/04/27 06:46:42;;;;;;;10.13;1.35;;;;;;;9.36;82.87;102697.06;5107838;28;20055;-29
2022/04/27 06:49:28;;;;;;;5.28;1.30;;;;;;;9.39;82.17;102698.53;5101629;28;20100;-32
2022/04/27 06:52:16;;;;;;;4.75;1.20;;;;;;;9.45;82.51;102697.53;5101030;28;20468;-31
2022/04/27 06:55:02;;;;;;;7.25;1.27;;;;;;;9.51;82.32;102713.25;5108978;28;20051;-31
2022/04/27 06:57:48;;;;;;;5.32;1.17;;;;;;;9.55;82.08;102709.75;5110382;28;20061;-31
2022/04/27 07:00:18;;;;;;;6.90;1.35;;;;;;;9.61;81.48;102713.47;5107725;28;20051;-27
2022/04/27 07:02:47;;;;;;;5.97;1.48;;;;;;;9.65;81.34;102715.50;5108265;28;20049;-30
2022/04/27 07:05:17;;;;;;;6.60;1.33;;;;;;;9.70;81.07;102720.34;5107080;28;20055;-27
2022/04/27 07:07:47;;;;;;;7.07;1.40;;;;;;;9.73;80.10;102721.78;5108665;28;20070;-29
2022/04/27 07:10:17;;;;;;;10.57;1.85;;;;;;;9.73;79.70;102730.16;5109850;28;20052;-28
2022/04/27 07:12:46;;;;;;;9.85;1.63;;;;;;;9.72;79.34;102725.69;5098457;28;20120;-28
2022/04/27 07:15:14;;;;;;;5.88;1.30;;;;;;;9.72;78.65;102731.25;5105609;28;20048;-29
2022/04/27 07:17:42;;;;;;;4.88;1.35;;;;;;;9.75;78.98;102733.56;5109677;28;20051;-33
2022/04/27 07:20:10;;;;;;;6.32;1.75;;;;;;;9.80;78.59;102739.19;5109419;28;20044;-27
2022/04/27 07:22:38;;;;;;;6.07;1.30;;;;;;;9.83;78.48;102739.56;5105004;28;20506;-28
2022/04/27 07:25:08;;;;;;;8.45;1.42;;;;;;;9.88;77.96;102742.47;5109280;28;20036;-25
2022/04/27 07:27:37;;;;;;;9.20;1.63;;;;;;;9.91;77.50;102741.13;5109601;28;20039;-28
2022/04/27 07:30:05;;;;;;;7.57;1.50;;;;;;;9.92;77.21;102742.81;5104744;28;20043;-30
2022/04/27 07:32:33;;;;;;;6.50;1.60;;;;;;;9.95;76.88;102745.09;5107695;28;20469;-29
2022/04/27 07:35:01;;;;;;;7.85;1.70;;;;;;;10.01;76.66;102750.50;5107284;28;20135;-26
2022/04/27 07:37:29;;;;;;;6.63;1.30;;;;;;;10.06;76.04;102760.09;5108378;28;20048;-30
2022/04/27 07:39:58;;;;;;;4.78;1.13;;;;;;;10.10;75.43;102750.13;5106148;28;20050;-28
2022/04/27 07:42:27;;;;;;;6.30;1.33;;;;;;;10.18;75.77;102758.09;5107342;28;20059;-31
2022/04/27 07:44:55;;;;;;;5.03;1.63;;;;;;;10.28;75.37;102752.72;5108498;28;20048;-30
2022/04/27 07:47:23;;;;;;;5.32;1.00;;;;;;;10.36;75.05;102760.72;5111959;28;20049;-33
2022/04/27 07:49:50;;;;;;;3.47;1.00;;;;;;;10.43;73.98;102749.38;5112538;28;20071;-29
2022/04/27 07:52:18;;;;;;;9.13;1.30;;;;;;;10.51;73.72;102762.91;5113254;28;20075;-28
2022/04/27 07:54:46;;;;;;;9.98;1.60;;;;;;;10.58;73.25;102764.47;5111477;28;20385;-28
2022/04/27 07:57:14;;;;;;;5.40;1.38;;;;;;;10.65;72.51;102764.28;5112392;28;20055;-27
2022/04/27 07:59:43;;;;;;;5.47;1.25;;;;;;;10.69;71.63;102762.66;5112668;28;20043;-30
2022/04/27 08:02:11;;;;;;;4.78;1.20;;;;;;;10.74;71.27;102764.72;5110848;28;20040;-26
2022/04/27 08:04:39;;;;;;;4.63;1.00;;;;;;;10.80;71.00;102772.91;5111171;28;20405;-30
2022/04/27 08:07:07;;;;;;;5.70;1.02;;;;;;;10.82;70.46;102770.69;5112907;28;20052;-31
2022/04/27 08:09:35;;;;;;;8.52;1.63;;;;;;;10.87;70.26;102773.59;5112813;28;20035;-29
2022/04/27 08:12:04;;;;;;;7.07;1.50;;;;;;;10.94;70.13;102777.06;5111930;28;20473;-29
2022/04/27 08:14:33;;;;;;;6.47;1.20;;;;;;;11.00;69.70;102778.81;5111937;28;20051;-31
2022/04/27 08:17:03;;;;;;;6.65;1.45;;;;;;;11.07;69.22;102780.59;5112226;28;20405;-28
2022/04/27 08:19:31;;;;;;;6.75;1.40;;;;;;;11.05;67.97;102781.69;5107733;28;20052;-26
2022/04/27 08:22:01;;;;;;;8.05;1.58;;;;;;;11.11;67.74;102788.22;5112602;27;20092;-29
2022/04/27 08:24:29;;;;;;;6.65;1.13;;;;;;;11.19;68.14;102792.53;5111634;28;20039;-30
2022/04/27 08:26:56;;;;;;;5.03;1.20;;;;;;;11.28;67.81;102780.66;5113741;28;20043;-33
2022/04/27 08:29:24;;;;;;;5.32;1.30;;;;;;;11.37;67.28;102795.88;5113063;28;20065;-28
2022/04/27 08:31:53;;;;;;;6.63;1.42;;;;;;;11.48;67.75;102796.00;5112810;28;20047;-30
2022/04/27 08:34:24;;;;;;;5.60;1.15;;;;;;;11.60;67.55;102789.19;5113321;27;20048;-29
2022/04/27 08:36:52;;;;;;;7.57;1.60;;;;;;;11.70;67.28;102792.13;5111425;28;20054;-25
2022/04/27 08:39:20;;;;;;;7.43;1.27;;;;;;;11.83;66.97;102795.66;5111372;28;20066;-30
2022/04/27 08:41:48;;;;;;;5.43;1.27;;;;;;;11.93;66.50;102796.66;5113129;28;20051;-31
2022/04/27 08:44:15;;;;;;;7.78;1.40;;;;;;;12.03;65.67;102798.72;5112707;28;20496;-28
2022/04/27 08:46:44;;;;;;;5.63;1.27;;;;;;;12.15;65.71;102793.84;5112528;28;20150;-25
2022/04/27 08:49:13;;;;;;;6.32;1.48;;;;;;;12.33;65.26;102804.69;5113057;28;20066;-26
2022/04/27 08:51:44;;;;;;;9.75;1.75;;;;;;;12.53;64.85;102803.19;5112859;28;20058;-32
2022/04/27 08:54:16;;;;;;;4.30;1.05;;;;;;;12.70;64.61;102815.13;5112324;28;20047;-29
2022/04/27 08:56:44;;;;;;;7.70;1.70;;;;;;;12.85;63.17;102814.41;5112989;28;20059;-32
2022/04/27 08:59:12;;;;;;;5.32;1.10;;;;;;;12.89;62.14;102812.75;5111029;28;20043;-35
2022/04/27 09:01:39;;;;;;;7.70;1.40;;;;;;;12.93;61.53;102811.97;5111991;28;20047;-25
2022/04/27 09:04:15;;;;;;;5.97;1.40;;;;;;;13.04;60.92;102808.13;5112861;28;20089;-30
2022/04/27 09:06:44;;;;;;;5.55;1.15;;;;;;;13.14;60.66;102814.94;5112184;28;20051;-32
2022/04/27 09:09:32;;;;;;;6.00;1.42;;;;;;;13.25;58.95;102811.97;5112839;28;20052;-29
2022/04/27 09:12:02;;;;;;;5.13;1.10;;;;;;;13.31;59.42;102812.84;5103981;28;20048;-31
2022/04/27 09:14:37;;;;;;;5.57;1.13;;;;;;;13.43;58.54;102819.09;5111044;28;20519;-27
2022/04/27 09:23:01;;;;;;;4.88;1.27;;;;;;;13.85;56.87;102826.63;5112263;28;20484;-31
2022/04/27 09:25:33;;;;;;;4.18;1.00;;;;;;;14.00;56.32;102826.69;5112544;27;20060;-28
2022/04/27 09:28:23;;;;;;;4.65;1.15;;;;;;;14.13;55.97;102824.22;5111280;28;20454;-29
2022/04/27 09:30:51;;;;;;;4.28;1.10;;;;;;;14.21;54.89;102836.03;5111965;28;20039;-31
2022/04/27 09:33:33;;;;;;;5.47;0.90;;;;;;;14.29;53.67;102835.50;5111691;28;20062;-37
2022/04/27 09:36:03;;;;;;;5.82;1.23;;;;;;;14.31;53.31;102830.44;5110520;28;20040;-28
2022/04/27 09:38:41;;;;;;;5.53;1.08;;;;;;;14.34;52.78;102841.13;5112138;28;20673;-28
2022/04/27 09:41:09;;;;;;;6.22;1.08;;;;;;;14.45;53.44;102837.25;5111856;28;20108;-29
2022/04/27 09:43:42;;;;;;;4.63;1.15;;;;;;;14.61;52.70;102841.78;5109259;28;20389;-31
2022/04/27 09:46:22;;;;;;;6.00;1.55;;;;;;;14.75;51.74;102842.94;5111967;28;20048;-30
2022/04/27 09:49:09;;;;;;;4.30;1.52;;;;;;;14.89;50.79;102845.19;5111577;28;20063;-30
2022/04/27 09:51:57;;;;;;;5.53;1.20;;;;;;;15.04;51.40;102840.41;5108106;28;20043;-30
2022/04/27 09:54:28;;;;;;;6.70;1.65;;;;;;;15.19;50.01;102836.75;5109624;28;20522;-26
2022/04/27 09:56:57;;;;;;;4.93;1.17;;;;;;;15.36;49.55;102842.94;5110889;28;20570;-29
2022/04/27 09:59:27;;;;;;;5.40;1.25;;;;;;;15.60;49.22;102836.72;5108878;28;20535;-31
2022/04/27 10:01:57;;;;;;;4.32;1.05;;;;;;;15.87;48.59;102842.00;5111363;28;20043;-32
2022/04/27 10:04:28;;;;;;;6.53;1.10;;;;;;;16.22;48.36;102843.81;5110362;28;20508;-30
2022/04/27 10:06:58;;;;;;;4.97;1.25;;;;;;;16.47;47.18;102849.34;5111377;28;20133;-32
2022/04/27 10:09:28;;;;;;;2.97;1.05;;;;;;;16.64;46.88;102844.19;5110579;28;20055;-37
2022/04/27 10:12:12;;;;;;;5.35;1.00;;;;;;;16.80;45.47;102842.94;5111249;28;20036;-31
2022/04/27 10:14:40;;;;;;;5.75;1.17;;;;;;;17.00;45.46;102846.72;5109510;28;20536;-32
2022/04/27 10:17:08;;;;;;;3.83;1.10;;;;;;;17.28;44.87;102834.66;5108765;28;20404;-30
2022/04/27 10:19:36;;;;;;;3.25;1.00;;;;;;;17.58;44.58;102834.31;5110017;28;20048;-30
2022/04/27 10:22:24;;;;;;;5.90;1.33;;;;;;;17.87;43.82;102836.31;5111531;28;20050;-27
2022/04/27 10:24:55;;;;;;;3.92;0.93;;;;;;;18.13;43.52;102834.00;5110536;28;20506;-33
2022/04/27 10:27:26;;;;;;;5.13;1.10;;;;;;;18.37;42.74;102836.81;5110971;28;20052;-31
2022/04/27 10:29:59;;;;;;;3.60;1.02;;;;;;;18.51;41.79;102837.72;5111290;28;20278;-33
2022/04/27 10:32:38;;;;;;;5.20;1.40;;;;;;;18.59;41.01;102840.72;5110601;28;20043;-32
2022/04/27 10:35:18;;;;;;;3.22;1.30;;;;;;;18.76;40.35;102831.72;5111108;28;20401;-27
2022/04/27 10:37:47;;;;;;;2.80;0.80;;;;;;;18.95;40.19;102833.69;5110454;28;20051;-32
2022/04/27 10:40:29;;;;;;;5.07;1.20;;;;;;;19.16;39.39;102829.38;5110615;28;20467;-32
2022/04/27 10:43:12;;;;;;;4.57;1.38;;;;;;;19.38;38.81;102825.88;5106535;28;20071;-33
2022/04/27 10:45:43;;;;;;;3.95;0.80;;;;;;;19.66;39.03;102827.59;5106634;28;20074;-33
2022/04/27 10:48:16;;;;;;;4.80;1.30;;;;;;;19.99;38.86;102834.00;5109949;28;20040;-30
2022/04/27 10:50:58;;;;;;;5.70;1.48;;;;;;;20.44;37.79;102826.53;5110111;28;20093;-35
2022/04/27 10:53:27;;;;;;;6.32;1.52;;;;;;;20.62;37.02;102828.38;5109142;28;20052;-35
2022/04/27 10:56:23;;;;;;;4.82;1.40;;;;;;;20.84;36.21;102836.09;5109735;28;20065;-28
2022/04/27 10:58:52;;;;;;;6.05;1.52;;;;;;;21.17;36.91;102833.00;5102776;28;20048;-31
2022/04/27 11:01:25;;;;;;;4.00;1.10;;;;;;;21.57;35.88;102837.63;5109725;28;20058;-28
2022/04/27 11:04:05;;;;;;;5.43;1.58;;;;;;;21.80;34.46;102829.03;5110054;28;20051;-32
2022/04/27 11:07:16;;;;;;;6.03;1.20;;;;;;;21.83;33.39;102831.22;5108916;28;20504;-33
2022/04/27 11:10:10;;;;;;;4.55;1.10;;;;;;;22.00;34.98;102831.31;5107801;28;20051;-36
2022/04/27 11:12:41;;;;;;;4.82;1.58;;;;;;;22.24;35.63;102823.19;5106842;28;20530;-27
2022/04/27 11:15:11;;;;;;;5.05;1.20;;;;;;;22.42;35.05;102835.44;5107938;28;20043;-34
2022/04/27 11:17:40;;;;;;;4.43;1.33;;;;;;;22.56;34.87;102824.75;5103088;28;20109;-32
2022/04/27 11:20:33;;;;;;;4.43;1.05;;;;;;;22.76;33.86;102836.66;5110086;28;20066;-38
2022/04/27 11:23:03;;;;;;;4.80;1.20;;;;;;;22.82;34.43;102830.47;5112069;28;20043;-30
2022/04/27 11:25:32;;;;;;;4.30;1.20;;;;;;;22.95;34.14;102840.88;5114492;28;20050;-32
2022/04/27 11:28:02;;;;;;;4.85;1.25;;;;;;;22.93;33.46;102833.84;5110381;28;20130;-29
2022/04/27 11:30:32;;;;;;;3.13;0.90;;;;;;;22.88;33.96;102836.84;5114911;28;20050;-35
2022/04/27 11:33:01;;;;;;;3.05;1.10;;;;;;;22.92;33.27;102841.53;5114503;28;20043;-35
2022/04/27 11:35:38;;;;;;;3.58;1.15;;;;;;;22.92;32.53;102833.00;5113603;28;20077;-31
2022/04/27 11:38:08;;;;;;;3.38;1.08;;;;;;;22.86;33.14;102833.50;5114448;28;20512;-25
2022/04/27 11:40:37;;;;;;;4.75;1.42;;;;;;;22.65;32.75;102819.06;5114235;27;20101;-31
2022/04/27 11:43:07;;;;;;;4.88;1.10;;;;;;;22.59;32.74;102823.22;5111862;28;20048;-32
2022/04/27 11:45:34;;;;;;;5.75;1.17;;;;;;;22.53;32.51;102833.13;5114487;28;20434;-34
2022/04/27 11:48:04;;;;;;;4.88;1.13;;;;;;;22.37;33.08;102835.63;5112914;28;20408;-27
2022/04/27 11:50:34;;;;;;;2.97;1.00;;;;;;;22.39;33.52;102835.25;5107596;28;20039;-31
2022/04/27 11:53:03;;;;;;;3.63;1.02;;;;;;;22.45;33.59;102845.31;5113765;28;20040;-34
2022/04/27 11:55:32;;;;;;;3.55;1.00;;;;;;;22.55;33.35;102842.16;5113528;28;20040;-29
2022/04/27 11:58:01;;;;;;;3.45;1.30;;;;;;;22.52;32.83;102840.81;5114141;28;20093;-28
2022/04/27 12:00:31;;;;;;;5.10;1.15;;;;;;;22.49;32.98;102832.94;5114199;28;20043;-28
2022/04/27 12:03:03;;;;;;;3.90;1.13;;;;;;;22.46;32.67;102838.47;5113231;28;20067;-31
2022/04/27 12:05:33;;;;;;;4.30;1.02;;;;;;;22.43;32.63;102841.97;5113836;28;20035;-34
2022/04/27 12:08:07;;;;;;;3.22;1.15;;;;;;;22.38;32.71;102842.16;5113908;28;20048;-33
2022/04/27 12:10:39;;;;;;;2.67;0.88;;;;;;;22.40;33.13;102845.47;5113093;28;20055;-30
2022/04/27 12:13:08;;;;;;;5.88;1.10;;;;;;;22.42;32.58;102841.13;5113850;28;20040;-35
2022/04/27 12:15:39;;;;;;;4.95;1.27;;;;;;;22.30;32.38;102838.09;5113725;28;20047;-30